EGAE/LDY METAR and TAF weather

Enter ICAO airport designator
Station Type Date Time Source
EGAE METAR 2018/07/21 11:20 UTC NOAA

EGAE 211120Z 27007KT 230V310 9999 FEW015 BKN019 17/13 Q1016


Station Type Date Time Source
EGAE Decoded METAR 2018/07/21 11:20 UTC NOAA

Eglinton / Londonderr, United Kingdom (EGAE) 55-03N 007-09W
Jul 21, 2018 - 07:20 AM EDT / 2018.07.21 1120 UTC
Wind: from the W (270 degrees) at 8 MPH (7 KT) (direction variable):0
Visibility: greater than 7 mile(s):0
Sky conditions: mostly cloudy
Temperature: 62 F (17 C)
Dew Point: 55 F (13 C)
Relative Humidity: 77%
Pressure (altimeter): 30.00 in. Hg (1016 hPa)
ob: EGAE 211120Z 27007KT 230V310 9999 FEW015 BKN019 17/13 Q1016
cycle: 11

Station Type Date Time Source
EGAE TAF UTC NOAA

Error!


Example: see airport list